sensor_id;sensor_type;location;lat;lon;timestamp;P1;durP1;ratioP1;P2;durP2;ratioP2
53899;SDS011;40509;32.858;-116.858;2023-05-10T00:00:12;0.70;;;0.70;;
53899;SDS011;40509;32.858;-116.858;2023-05-10T00:02:39;0.98;;;0.70;;
53899;SDS011;40509;32.858;-116.858;2023-05-10T00:05:06;0.85;;;0.85;;
53899;SDS011;40509;32.858;-116.858;2023-05-10T00:07:35;2.15;;;0.70;;
53899;SDS011;40509;32.858;-116.858;2023-05-10T00:10:02;1.58;;;1.40;;
53899;SDS011;40509;32.858;-116.858;2023-05-10T00:12:29;3.15;;;0.93;;
53899;SDS011;40509;32.858;-116.858;2023-05-10T00:14:57;1.70;;;1.27;;
53899;SDS011;40509;32.858;-116.858;2023-05-10T00:17:24;12.15;;;1.73;;
53899;SDS011;40509;32.858;-116.858;2023-05-10T00:19:51;3.78;;;0.85;;
53899;SDS011;40509;32.858;-116.858;2023-05-10T00:22:18;2.58;;;1.50;;
53899;SDS011;40509;32.858;-116.858;2023-05-10T00:24:45;9.75;;;1.50;;
53899;SDS011;40509;32.858;-116.858;2023-05-10T00:27:12;5.78;;;1.33;;
53899;SDS011;40509;32.858;-116.858;2023-05-10T00:29:39;20.08;;;1.65;;
53899;SDS011;40509;32.858;-116.858;2023-05-10T00:32:08;5.38;;;1.67;;
53899;SDS011;40509;32.858;-116.858;2023-05-10T00:34:35;6.30;;;1.52;;
53899;SDS011;40509;32.858;-116.858;2023-05-10T00:37:05;10.43;;;1.33;;
53899;SDS011;40509;32.858;-116.858;2023-05-10T00:39:35;4.45;;;1.73;;
53899;SDS011;40509;32.858;-116.858;2023-05-10T00:42:03;9.68;;;1.05;;
53899;SDS011;40509;32.858;-116.858;2023-05-10T00:44:30;17.33;;;3.08;;
53899;SDS011;40509;32.858;-116.858;2023-05-10T00:46:58;3.38;;;1.80;;
53899;SDS011;40509;32.858;-116.858;2023-05-10T00:49:26;3.00;;;1.15;;
53899;SDS011;40509;32.858;-116.858;2023-05-10T00:51:53;5.70;;;1.17;;
53899;SDS011;40509;32.858;-116.858;2023-05-10T00:54:21;5.70;;;1.40;;
53899;SDS011;40509;32.858;-116.858;2023-05-10T00:56:48;1.27;;;0.80;;
53899;SDS011;40509;32.858;-116.858;2023-05-10T00:59:16;5.68;;;1.75;;
53899;SDS011;40509;32.858;-116.858;2023-05-10T01:01:44;5.90;;;1.08;;
53899;SDS011;40509;32.858;-116.858;2023-05-10T01:04:13;15.85;;;1.48;;
53899;SDS011;40509;32.858;-116.858;2023-05-10T01:06:42;3.55;;;0.93;;
53899;SDS011;40509;32.858;-116.858;2023-05-10T01:09:09;5.07;;;2.47;;
53899;SDS011;40509;32.858;-116.858;2023-05-10T01:11:38;1.42;;;0.82;;
53899;SDS011;40509;32.858;-116.858;2023-05-10T01:14:06;7.45;;;1.15;;
53899;SDS011;40509;32.858;-116.858;2023-05-10T01:16:35;6.78;;;1.33;;
53899;SDS011;40509;32.858;-116.858;2023-05-10T01:19:06;5.97;;;1.90;;
53899;SDS011;40509;32.858;-116.858;2023-05-10T01:21:48;5.32;;;1.38;;
53899;SDS011;40509;32.858;-116.858;2023-05-10T01:30:08;11.15;;;1.63;;
53899;SDS011;40509;32.858;-116.858;2023-05-10T01:33:25;1.45;;;0.80;;
53899;SDS011;40509;32.858;-116.858;2023-05-10T01:36:16;3.60;;;0.98;;
53899;SDS011;40509;32.858;-116.858;2023-05-10T01:38:59;3.13;;;0.90;;
53899;SDS011;40509;32.858;-116.858;2023-05-10T01:47:22;1.55;;;0.82;;
53899;SDS011;40509;32.858;-116.858;2023-05-10T01:52:44;3.20;;;0.80;;
53899;SDS011;40509;32.858;-116.858;2023-05-10T01:55:24;4.88;;;0.98;;
53899;SDS011;40509;32.858;-116.858;2023-05-10T01:58:28;9.00;;;1.95;;
53899;SDS011;40509;32.858;-116.858;2023-05-10T02:00:55;5.57;;;1.77;;
53899;SDS011;40509;32.858;-116.858;2023-05-10T02:03:25;5.88;;;1.10;;
53899;SDS011;40509;32.858;-116.858;2023-05-10T02:05:53;4.70;;;1.35;;
53899;SDS011;40509;32.858;-116.858;2023-05-10T02:08:22;5.28;;;1.30;;
53899;SDS011;40509;32.858;-116.858;2023-05-10T02:10:52;2.15;;;0.60;;
53899;SDS011;40509;32.858;-116.858;2023-05-10T02:13:21;2.05;;;1.65;;
53899;SDS011;40509;32.858;-116.858;2023-05-10T02:15:51;6.05;;;1.08;;
53899;SDS011;40509;32.858;-116.858;2023-05-10T02:18:19;1.80;;;0.80;;
53899;SDS011;40509;32.858;-116.858;2023-05-10T02:20:48;4.55;;;1.05;;
53899;SDS011;40509;32.858;-116.858;2023-05-10T02:23:18;3.60;;;1.45;;
53899;SDS011;40509;32.858;-116.858;2023-05-10T02:25:48;3.22;;;1.38;;
53899;SDS011;40509;32.858;-116.858;2023-05-10T02:28:15;1.90;;;1.10;;
53899;SDS011;40509;32.858;-116.858;2023-05-10T02:30:44;4.07;;;1.30;;
53899;SDS011;40509;32.858;-116.858;2023-05-10T02:33:13;2.90;;;1.13;;
53899;SDS011;40509;32.858;-116.858;2023-05-10T02:35:41;3.38;;;1.20;;
53899;SDS011;40509;32.858;-116.858;2023-05-10T02:38:08;3.58;;;2.15;;
53899;SDS011;40509;32.858;-116.858;2023-05-10T02:40:39;5.95;;;1.45;;
53899;SDS011;40509;32.858;-116.858;2023-05-10T02:43:12;1.40;;;0.98;;
53899;SDS011;40509;32.858;-116.858;2023-05-10T02:45:43;5.55;;;2.30;;
53899;SDS011;40509;32.858;-116.858;2023-05-10T02:50:43;4.68;;;1.20;;
53899;SDS011;40509;32.858;-116.858;2023-05-10T02:53:15;7.75;;;2.17;;
53899;SDS011;40509;32.858;-116.858;2023-05-10T02:55:49;2.78;;;1.58;;
53899;SDS011;40509;32.858;-116.858;2023-05-10T02:58:18;3.63;;;1.43;;
53899;SDS011;40509;32.858;-116.858;2023-05-10T03:00:47;5.47;;;1.85;;
53899;SDS011;40509;32.858;-116.858;2023-05-10T03:03:14;3.13;;;1.52;;
53899;SDS011;40509;32.858;-116.858;2023-05-10T03:05:41;3.75;;;0.85;;
53899;SDS011;40509;32.858;-116.858;2023-05-10T03:08:08;3.42;;;1.17;;
53899;SDS011;40509;32.858;-116.858;2023-05-10T03:10:38;0.90;;;0.65;;
53899;SDS011;40509;32.858;-116.858;2023-05-10T03:13:31;13.68;;;2.17;;
53899;SDS011;40509;32.858;-116.858;2023-05-10T03:16:10;5.18;;;1.20;;
53899;SDS011;40509;32.858;-116.858;2023-05-10T03:21:33;7.43;;;1.92;;
53899;SDS011;40509;32.858;-116.858;2023-05-10T03:24:06;2.63;;;1.00;;
53899;SDS011;40509;32.858;-116.858;2023-05-10T03:29:12;10.00;;;1.65;;
53899;SDS011;40509;32.858;-116.858;2023-05-10T03:31:41;2.97;;;1.60;;
53899;SDS011;40509;32.858;-116.858;2023-05-10T03:34:09;6.82;;;1.73;;
53899;SDS011;40509;32.858;-116.858;2023-05-10T03:36:37;3.65;;;1.02;;
53899;SDS011;40509;32.858;-116.858;2023-05-10T03:39:04;10.05;;;1.55;;
53899;SDS011;40509;32.858;-116.858;2023-05-10T03:41:31;8.25;;;1.63;;
53899;SDS011;40509;32.858;-116.858;2023-05-10T03:43:58;3.50;;;1.27;;
53899;SDS011;40509;32.858;-116.858;2023-05-10T03:46:26;2.30;;;1.50;;
53899;SDS011;40509;32.858;-116.858;2023-05-10T03:48:54;1.35;;;1.10;;
53899;SDS011;40509;32.858;-116.858;2023-05-10T03:51:21;5.50;;;4.25;;
53899;SDS011;40509;32.858;-116.858;2023-05-10T03:53:48;4.78;;;2.20;;
53899;SDS011;40509;32.858;-116.858;2023-05-10T03:56:16;3.30;;;1.90;;
53899;SDS011;40509;32.858;-116.858;2023-05-10T03:58:45;9.85;;;3.22;;
53899;SDS011;40509;32.858;-116.858;2023-05-10T04:01:13;5.32;;;2.08;;
53899;SDS011;40509;32.858;-116.858;2023-05-10T04:03:41;4.05;;;2.55;;
53899;SDS011;40509;32.858;-116.858;2023-05-10T04:06:08;4.97;;;2.45;;
53899;SDS011;40509;32.858;-116.858;2023-05-10T04:08:37;12.52;;;2.20;;
53899;SDS011;40509;32.858;-116.858;2023-05-10T04:11:08;3.10;;;2.63;;
53899;SDS011;40509;32.858;-116.858;2023-05-10T04:13:38;4.20;;;3.50;;
53899;SDS011;40509;32.858;-116.858;2023-05-10T04:16:06;8.25;;;3.10;;
53899;SDS011;40509;32.858;-116.858;2023-05-10T04:18:33;9.57;;;3.40;;
53899;SDS011;40509;32.858;-116.858;2023-05-10T04:21:00;5.68;;;2.75;;
53899;SDS011;40509;32.858;-116.858;2023-05-10T04:23:28;4.63;;;3.33;;
53899;SDS011;40509;32.858;-116.858;2023-05-10T04:25:59;6.32;;;3.25;;
53899;SDS011;40509;32.858;-116.858;2023-05-10T04:28:27;3.28;;;2.97;;
53899;SDS011;40509;32.858;-116.858;2023-05-10T04:31:05;10.75;;;3.95;;
53899;SDS011;40509;32.858;-116.858;2023-05-10T04:33:34;5.05;;;2.97;;
53899;SDS011;40509;32.858;-116.858;2023-05-10T04:36:02;6.10;;;2.90;;
53899;SDS011;40509;32.858;-116.858;2023-05-10T04:38:30;3.63;;;2.95;;
53899;SDS011;40509;32.858;-116.858;2023-05-10T04:41:03;3.42;;;2.38;;
53899;SDS011;40509;32.858;-116.858;2023-05-10T04:43:32;5.22;;;3.17;;
53899;SDS011;40509;32.858;-116.858;2023-05-10T04:46:00;6.82;;;2.92;;
53899;SDS011;40509;32.858;-116.858;2023-05-10T04:48:27;5.03;;;2.35;;
53899;SDS011;40509;32.858;-116.858;2023-05-10T04:50:55;3.50;;;2.47;;
53899;SDS011;40509;32.858;-116.858;2023-05-10T04:53:22;4.43;;;2.63;;
53899;SDS011;40509;32.858;-116.858;2023-05-10T04:55:50;7.28;;;2.35;;
53899;SDS011;40509;32.858;-116.858;2023-05-10T04:58:17;7.57;;;2.60;;
53899;SDS011;40509;32.858;-116.858;2023-05-10T05:00:44;3.50;;;2.28;;
53899;SDS011;40509;32.858;-116.858;2023-05-10T05:03:11;11.10;;;2.08;;
53899;SDS011;40509;32.858;-116.858;2023-05-10T05:05:39;1.75;;;1.45;;
53899;SDS011;40509;32.858;-116.858;2023-05-10T05:08:06;5.63;;;2.08;;
53899;SDS011;40509;32.858;-116.858;2023-05-10T05:10:33;2.90;;;2.15;;
53899;SDS011;40509;32.858;-116.858;2023-05-10T05:13:01;2.50;;;2.03;;
53899;SDS011;40509;32.858;-116.858;2023-05-10T05:15:28;5.38;;;2.17;;
53899;SDS011;40509;32.858;-116.858;2023-05-10T05:17:56;3.53;;;2.33;;
53899;SDS011;40509;32.858;-116.858;2023-05-10T05:20:24;4.57;;;1.80;;
53899;SDS011;40509;32.858;-116.858;2023-05-10T05:22:51;2.35;;;1.60;;
53899;SDS011;40509;32.858;-116.858;2023-05-10T05:25:18;10.80;;;2.63;;
53899;SDS011;40509;32.858;-116.858;2023-05-10T05:27:46;5.05;;;2.20;;
53899;SDS011;40509;32.858;-116.858;2023-05-10T05:30:13;2.08;;;1.80;;
53899;SDS011;40509;32.858;-116.858;2023-05-10T05:32:40;3.72;;;1.80;;
53899;SDS011;40509;32.858;-116.858;2023-05-10T05:35:07;2.67;;;1.77;;
53899;SDS011;40509;32.858;-116.858;2023-05-10T05:37:35;2.30;;;2.10;;
53899;SDS011;40509;32.858;-116.858;2023-05-10T05:40:03;5.80;;;2.65;;
53899;SDS011;40509;32.858;-116.858;2023-05-10T05:42:31;6.90;;;2.25;;
53899;SDS011;40509;32.858;-116.858;2023-05-10T05:44:58;3.50;;;1.80;;
53899;SDS011;40509;32.858;-116.858;2023-05-10T05:47:26;9.30;;;2.40;;
53899;SDS011;40509;32.858;-116.858;2023-05-10T05:49:53;3.65;;;1.85;;
53899;SDS011;40509;32.858;-116.858;2023-05-10T05:52:21;5.57;;;2.65;;
53899;SDS011;40509;32.858;-116.858;2023-05-10T05:54:48;4.15;;;2.63;;
53899;SDS011;40509;32.858;-116.858;2023-05-10T05:57:16;1.92;;;1.60;;
53899;SDS011;40509;32.858;-116.858;2023-05-10T05:59:43;3.03;;;2.30;;
53899;SDS011;40509;32.858;-116.858;2023-05-10T06:02:11;2.75;;;2.28;;
53899;SDS011;40509;32.858;-116.858;2023-05-10T06:04:39;3.08;;;1.95;;
53899;SDS011;40509;32.858;-116.858;2023-05-10T06:07:06;4.88;;;1.85;;
53899;SDS011;40509;32.858;-116.858;2023-05-10T06:09:33;4.25;;;2.10;;
53899;SDS011;40509;32.858;-116.858;2023-05-10T06:12:00;4.60;;;2.00;;
53899;SDS011;40509;32.858;-116.858;2023-05-10T06:14:27;2.90;;;1.85;;
53899;SDS011;40509;32.858;-116.858;2023-05-10T06:16:57;1.30;;;1.20;;
53899;SDS011;40509;32.858;-116.858;2023-05-10T06:19:25;3.65;;;1.80;;
53899;SDS011;40509;32.858;-116.858;2023-05-10T06:21:53;3.83;;;2.60;;
53899;SDS011;40509;32.858;-116.858;2023-05-10T06:24:20;3.20;;;1.85;;
53899;SDS011;40509;32.858;-116.858;2023-05-10T06:26:47;7.18;;;2.13;;
53899;SDS011;40509;32.858;-116.858;2023-05-10T06:29:16;3.25;;;1.77;;
53899;SDS011;40509;32.858;-116.858;2023-05-10T06:31:43;3.65;;;1.90;;
53899;SDS011;40509;32.858;-116.858;2023-05-10T06:34:11;2.13;;;1.77;;
53899;SDS011;40509;32.858;-116.858;2023-05-10T06:36:38;8.15;;;1.42;;
53899;SDS011;40509;32.858;-116.858;2023-05-10T06:39:05;4.15;;;1.95;;
53899;SDS011;40509;32.858;-116.858;2023-05-10T06:41:33;3.90;;;2.05;;
53899;SDS011;40509;32.858;-116.858;2023-05-10T06:44:00;4.57;;;1.73;;
53899;SDS011;40509;32.858;-116.858;2023-05-10T06:46:27;2.22;;;1.15;;
53899;SDS011;40509;32.858;-116.858;2023-05-10T06:48:55;4.43;;;1.63;;
53899;SDS011;40509;32.858;-116.858;2023-05-10T06:51:22;3.15;;;1.50;;
53899;SDS011;40509;32.858;-116.858;2023-05-10T06:53:49;1.95;;;1.60;;
53899;SDS011;40509;32.858;-116.858;2023-05-10T06:56:16;1.73;;;1.45;;
53899;SDS011;40509;32.858;-116.858;2023-05-10T06:58:43;2.83;;;1.00;;
53899;SDS011;40509;32.858;-116.858;2023-05-10T07:01:10;1.45;;;1.08;;
53899;SDS011;40509;32.858;-116.858;2023-05-10T07:03:37;1.70;;;1.45;;
53899;SDS011;40509;32.858;-116.858;2023-05-10T07:06:04;3.72;;;1.25;;
53899;SDS011;40509;32.858;-116.858;2023-05-10T07:08:33;3.50;;;1.40;;
53899;SDS011;40509;32.858;-116.858;2023-05-10T07:11:04;3.28;;;1.85;;
53899;SDS011;40509;32.858;-116.858;2023-05-10T07:13:36;2.78;;;1.45;;
53899;SDS011;40509;32.858;-116.858;2023-05-10T07:16:05;1.95;;;1.52;;
53899;SDS011;40509;32.858;-116.858;2023-05-10T07:18:32;3.45;;;1.83;;
53899;SDS011;40509;32.858;-116.858;2023-05-10T07:21:00;2.13;;;1.40;;
53899;SDS011;40509;32.858;-116.858;2023-05-10T07:23:27;1.98;;;1.25;;
53899;SDS011;40509;32.858;-116.858;2023-05-10T07:25:55;2.55;;;1.45;;
53899;SDS011;40509;32.858;-116.858;2023-05-10T07:28:23;3.53;;;1.60;;
53899;SDS011;40509;32.858;-116.858;2023-05-10T07:30:51;2.08;;;1.60;;
53899;SDS011;40509;32.858;-116.858;2023-05-10T07:33:18;2.10;;;1.38;;
53899;SDS011;40509;32.858;-116.858;2023-05-10T07:35:46;1.20;;;1.10;;
53899;SDS011;40509;32.858;-116.858;2023-05-10T07:38:13;2.17;;;1.02;;
53899;SDS011;40509;32.858;-116.858;2023-05-10T07:40:40;3.05;;;1.52;;
53899;SDS011;40509;32.858;-116.858;2023-05-10T07:43:07;1.20;;;1.10;;
53899;SDS011;40509;32.858;-116.858;2023-05-10T07:45:34;1.42;;;1.25;;
53899;SDS011;40509;32.858;-116.858;2023-05-10T07:48:01;2.80;;;1.33;;
53899;SDS011;40509;32.858;-116.858;2023-05-10T07:50:29;2.80;;;0.95;;
53899;SDS011;40509;32.858;-116.858;2023-05-10T07:52:56;1.98;;;1.40;;
53899;SDS011;40509;32.858;-116.858;2023-05-10T07:55:24;2.00;;;1.52;;
53899;SDS011;40509;32.858;-116.858;2023-05-10T07:57:51;2.63;;;1.20;;
53899;SDS011;40509;32.858;-116.858;2023-05-10T08:00:19;1.42;;;1.30;;
53899;SDS011;40509;32.858;-116.858;2023-05-10T08:02:47;2.42;;;1.20;;
53899;SDS011;40509;32.858;-116.858;2023-05-10T08:05:14;11.15;;;1.50;;
53899;SDS011;40509;32.858;-116.858;2023-05-10T08:07:41;2.58;;;1.35;;
53899;SDS011;40509;32.858;-116.858;2023-05-10T08:10:08;1.63;;;1.33;;
53899;SDS011;40509;32.858;-116.858;2023-05-10T08:12:37;2.03;;;1.42;;
53899;SDS011;40509;32.858;-116.858;2023-05-10T08:15:05;2.15;;;1.45;;
53899;SDS011;40509;32.858;-116.858;2023-05-10T08:17:33;1.20;;;1.10;;
53899;SDS011;40509;32.858;-116.858;2023-05-10T08:20:00;1.58;;;1.00;;
53899;SDS011;40509;32.858;-116.858;2023-05-10T08:22:28;4.18;;;1.42;;
53899;SDS011;40509;32.858;-116.858;2023-05-10T08:24:55;6.43;;;1.38;;
53899;SDS011;40509;32.858;-116.858;2023-05-10T08:27:22;1.67;;;1.58;;
53899;SDS011;40509;32.858;-116.858;2023-05-10T08:29:49;2.17;;;1.30;;
53899;SDS011;40509;32.858;-116.858;2023-05-10T08:32:17;2.30;;;1.75;;
53899;SDS011;40509;32.858;-116.858;2023-05-10T08:34:44;3.03;;;1.65;;
53899;SDS011;40509;32.858;-116.858;2023-05-10T08:37:11;1.83;;;1.02;;
53899;SDS011;40509;32.858;-116.858;2023-05-10T08:39:39;1.50;;;1.35;;
53899;SDS011;40509;32.858;-116.858;2023-05-10T08:42:06;2.40;;;1.17;;
53899;SDS011;40509;32.858;-116.858;2023-05-10T08:44:35;1.17;;;1.00;;
53899;SDS011;40509;32.858;-116.858;2023-05-10T08:47:06;1.90;;;1.17;;
53899;SDS011;40509;32.858;-116.858;2023-05-10T08:52:04;0.88;;;0.88;;
53899;SDS011;40509;32.858;-116.858;2023-05-10T08:54:33;2.83;;;1.33;;
53899;SDS011;40509;32.858;-116.858;2023-05-10T08:57:01;5.13;;;1.60;;
53899;SDS011;40509;32.858;-116.858;2023-05-10T08:59:29;1.92;;;1.33;;
53899;SDS011;40509;32.858;-116.858;2023-05-10T09:01:57;2.25;;;1.17;;
53899;SDS011;40509;32.858;-116.858;2023-05-10T09:04:25;3.50;;;1.17;;
53899;SDS011;40509;32.858;-116.858;2023-05-10T09:06:54;2.42;;;0.95;;
53899;SDS011;40509;32.858;-116.858;2023-05-10T09:09:21;2.45;;;1.15;;
53899;SDS011;40509;32.858;-116.858;2023-05-10T09:11:49;1.42;;;0.80;;
53899;SDS011;40509;32.858;-116.858;2023-05-10T09:14:16;1.63;;;0.98;;
53899;SDS011;40509;32.858;-116.858;2023-05-10T09:16:45;3.22;;;0.95;;
53899;SDS011;40509;32.858;-116.858;2023-05-10T09:19:12;1.08;;;0.80;;
53899;SDS011;40509;32.858;-116.858;2023-05-10T09:21:39;1.88;;;1.15;;
53899;SDS011;40509;32.858;-116.858;2023-05-10T09:24:07;1.23;;;0.75;;
53899;SDS011;40509;32.858;-116.858;2023-05-10T09:26:35;1.27;;;1.05;;
53899;SDS011;40509;32.858;-116.858;2023-05-10T09:29:12;2.42;;;0.95;;
53899;SDS011;40509;32.858;-116.858;2023-05-10T09:31:44;3.35;;;1.48;;
53899;SDS011;40509;32.858;-116.858;2023-05-10T09:34:20;3.05;;;1.30;;
53899;SDS011;40509;32.858;-116.858;2023-05-10T09:36:59;1.20;;;0.70;;
53899;SDS011;40509;32.858;-116.858;2023-05-10T09:39:34;2.53;;;1.30;;
53899;SDS011;40509;32.858;-116.858;2023-05-10T09:42:03;1.85;;;1.02;;
53899;SDS011;40509;32.858;-116.858;2023-05-10T09:44:32;4.20;;;0.93;;
53899;SDS011;40509;32.858;-116.858;2023-05-10T09:47:00;5.13;;;1.63;;
53899;SDS011;40509;32.858;-116.858;2023-05-10T09:49:28;3.45;;;1.15;;
53899;SDS011;40509;32.858;-116.858;2023-05-10T09:52:03;1.08;;;0.98;;
53899;SDS011;40509;32.858;-116.858;2023-05-10T09:54:32;1.38;;;0.77;;
53899;SDS011;40509;32.858;-116.858;2023-05-10T09:57:00;1.23;;;1.02;;
53899;SDS011;40509;32.858;-116.858;2023-05-10T09:59:28;3.60;;;1.23;;
53899;SDS011;40509;32.858;-116.858;2023-05-10T10:01:59;1.47;;;0.97;;
53899;SDS011;40509;32.858;-116.858;2023-05-10T10:04:27;1.25;;;0.90;;
53899;SDS011;40509;32.858;-116.858;2023-05-10T10:07:02;0.77;;;0.75;;
53899;SDS011;40509;32.858;-116.858;2023-05-10T10:09:30;1.70;;;0.90;;
53899;SDS011;40509;32.858;-116.858;2023-05-10T10:11:58;2.42;;;0.90;;
53899;SDS011;40509;32.858;-116.858;2023-05-10T10:14:26;1.73;;;0.90;;
53899;SDS011;40509;32.858;-116.858;2023-05-10T10:16:54;1.85;;;1.13;;
53899;SDS011;40509;32.858;-116.858;2023-05-10T10:19:22;1.98;;;0.73;;
53899;SDS011;40509;32.858;-116.858;2023-05-10T10:21:49;2.17;;;0.80;;
53899;SDS011;40509;32.858;-116.858;2023-05-10T10:24:16;3.78;;;1.25;;
53899;SDS011;40509;32.858;-116.858;2023-05-10T10:26:44;0.93;;;0.88;;
53899;SDS011;40509;32.858;-116.858;2023-05-10T10:29:17;2.42;;;1.00;;
53899;SDS011;40509;32.858;-116.858;2023-05-10T10:31:59;0.85;;;0.80;;
53899;SDS011;40509;32.858;-116.858;2023-05-10T10:34:32;2.28;;;0.93;;
53899;SDS011;40509;32.858;-116.858;2023-05-10T10:37:03;1.52;;;1.25;;
53899;SDS011;40509;32.858;-116.858;2023-05-10T10:39:32;1.15;;;0.90;;
53899;SDS011;40509;32.858;-116.858;2023-05-10T10:42:02;0.95;;;0.75;;
53899;SDS011;40509;32.858;-116.858;2023-05-10T10:49:49;1.40;;;1.00;;
53899;SDS011;40509;32.858;-116.858;2023-05-10T10:52:34;1.42;;;0.80;;
53899;SDS011;40509;32.858;-116.858;2023-05-10T11:00:27;1.92;;;1.27;;
53899;SDS011;40509;32.858;-116.858;2023-05-10T11:03:03;1.67;;;1.05;;
53899;SDS011;40509;32.858;-116.858;2023-05-10T11:05:45;1.10;;;0.93;;
53899;SDS011;40509;32.858;-116.858;2023-05-10T11:08:31;1.40;;;0.80;;
53899;SDS011;40509;32.858;-116.858;2023-05-10T11:13:33;1.70;;;0.90;;
53899;SDS011;40509;32.858;-116.858;2023-05-10T11:18:39;3.25;;;1.00;;
53899;SDS011;40509;32.858;-116.858;2023-05-10T11:21:08;1.67;;;0.93;;
53899;SDS011;40509;32.858;-116.858;2023-05-10T11:26:09;2.15;;;1.20;;
53899;SDS011;40509;32.858;-116.858;2023-05-10T11:28:46;1.02;;;0.70;;
53899;SDS011;40509;32.858;-116.858;2023-05-10T11:31:15;1.65;;;0.63;;
53899;SDS011;40509;32.858;-116.858;2023-05-10T11:36:18;2.58;;;1.50;;
53899;SDS011;40509;32.858;-116.858;2023-05-10T11:38:47;3.53;;;1.15;;
53899;SDS011;40509;32.858;-116.858;2023-05-10T11:41:15;1.50;;;0.75;;
53899;SDS011;40509;32.858;-116.858;2023-05-10T11:43:49;3.75;;;0.80;;
53899;SDS011;40509;32.858;-116.858;2023-05-10T11:46:20;1.02;;;1.00;;
53899;SDS011;40509;32.858;-116.858;2023-05-10T11:48:49;4.75;;;0.88;;
53899;SDS011;40509;32.858;-116.858;2023-05-10T11:51:21;1.33;;;1.00;;
53899;SDS011;40509;32.858;-116.858;2023-05-10T11:53:50;1.00;;;0.75;;
53899;SDS011;40509;32.858;-116.858;2023-05-10T11:56:20;1.02;;;0.82;;
53899;SDS011;40509;32.858;-116.858;2023-05-10T11:58:54;3.50;;;1.52;;
53899;SDS011;40509;32.858;-116.858;2023-05-10T12:01:23;0.75;;;0.75;;
53899;SDS011;40509;32.858;-116.858;2023-05-10T12:03:52;1.10;;;0.82;;
53899;SDS011;40509;32.858;-116.858;2023-05-10T12:06:21;2.30;;;0.93;;
53899;SDS011;40509;32.858;-116.858;2023-05-10T12:08:48;2.55;;;1.23;;
53899;SDS011;40509;32.858;-116.858;2023-05-10T12:11:20;1.08;;;0.80;;
53899;SDS011;40509;32.858;-116.858;2023-05-10T12:13:51;0.63;;;0.52;;
53899;SDS011;40509;32.858;-116.858;2023-05-10T12:16:20;1.02;;;0.93;;
53899;SDS011;40509;32.858;-116.858;2023-05-10T12:18:52;1.08;;;0.82;;
53899;SDS011;40509;32.858;-116.858;2023-05-10T12:21:22;2.40;;;1.15;;
53899;SDS011;40509;32.858;-116.858;2023-05-10T12:23:51;3.17;;;1.00;;
53899;SDS011;40509;32.858;-116.858;2023-05-10T12:26:24;3.45;;;1.27;;
53899;SDS011;40509;32.858;-116.858;2023-05-10T12:31:20;1.52;;;0.80;;
53899;SDS011;40509;32.858;-116.858;2023-05-10T12:33:47;1.83;;;0.88;;
53899;SDS011;40509;32.858;-116.858;2023-05-10T12:36:16;1.25;;;0.55;;
53899;SDS011;40509;32.858;-116.858;2023-05-10T12:38:44;1.52;;;0.60;;
53899;SDS011;40509;32.858;-116.858;2023-05-10T12:41:17;1.65;;;0.60;;
53899;SDS011;40509;32.858;-116.858;2023-05-10T12:43:45;2.85;;;0.80;;
53899;SDS011;40509;32.858;-116.858;2023-05-10T12:46:13;0.75;;;0.73;;
53899;SDS011;40509;32.858;-116.858;2023-05-10T12:48:41;1.08;;;0.55;;
53899;SDS011;40509;32.858;-116.858;2023-05-10T12:51:10;0.95;;;0.60;;
53899;SDS011;40509;32.858;-116.858;2023-05-10T12:53:43;1.77;;;1.10;;
53899;SDS011;40509;32.858;-116.858;2023-05-10T12:56:11;0.85;;;0.55;;
53899;SDS011;40509;32.858;-116.858;2023-05-10T12:58:39;0.90;;;0.60;;
53899;SDS011;40509;32.858;-116.858;2023-05-10T13:01:06;1.15;;;0.80;;
53899;SDS011;40509;32.858;-116.858;2023-05-10T13:03:34;2.28;;;1.23;;
53899;SDS011;40509;32.858;-116.858;2023-05-10T13:06:01;4.65;;;0.70;;
53899;SDS011;40509;32.858;-116.858;2023-05-10T13:08:28;1.17;;;0.77;;
53899;SDS011;40509;32.858;-116.858;2023-05-10T13:11:02;0.80;;;0.60;;
53899;SDS011;40509;32.858;-116.858;2023-05-10T13:13:30;1.67;;;0.65;;
53899;SDS011;40509;32.858;-116.858;2023-05-10T13:15:57;2.25;;;0.80;;
53899;SDS011;40509;32.858;-116.858;2023-05-10T13:18:25;3.10;;;0.80;;
53899;SDS011;40509;32.858;-116.858;2023-05-10T13:20:53;1.30;;;0.47;;
53899;SDS011;40509;32.858;-116.858;2023-05-10T13:23:21;2.13;;;1.10;;
53899;SDS011;40509;32.858;-116.858;2023-05-10T13:25:48;0.82;;;0.70;;
53899;SDS011;40509;32.858;-116.858;2023-05-10T13:28:16;0.95;;;0.73;;
53899;SDS011;40509;32.858;-116.858;2023-05-10T13:30:43;1.55;;;0.93;;
53899;SDS011;40509;32.858;-116.858;2023-05-10T13:33:10;1.35;;;0.90;;
53899;SDS011;40509;32.858;-116.858;2023-05-10T13:35:37;0.95;;;0.80;;
53899;SDS011;40509;32.858;-116.858;2023-05-10T13:38:04;1.25;;;0.60;;
53899;SDS011;40509;32.858;-116.858;2023-05-10T13:40:34;1.42;;;0.82;;
53899;SDS011;40509;32.858;-116.858;2023-05-10T13:43:02;2.20;;;0.82;;
53899;SDS011;40509;32.858;-116.858;2023-05-10T13:45:29;3.38;;;0.82;;
53899;SDS011;40509;32.858;-116.858;2023-05-10T13:47:56;1.52;;;1.15;;
53899;SDS011;40509;32.858;-116.858;2023-05-10T13:50:23;3.05;;;0.73;;
53899;SDS011;40509;32.858;-116.858;2023-05-10T13:52:51;3.42;;;1.00;;
53899;SDS011;40509;32.858;-116.858;2023-05-10T13:55:18;2.20;;;0.90;;
53899;SDS011;40509;32.858;-116.858;2023-05-10T13:57:45;1.02;;;0.77;;
53899;SDS011;40509;32.858;-116.858;2023-05-10T14:00:14;0.65;;;0.55;;
53899;SDS011;40509;32.858;-116.858;2023-05-10T14:02:42;0.90;;;0.85;;
53899;SDS011;40509;32.858;-116.858;2023-05-10T14:05:09;3.88;;;0.98;;
53899;SDS011;40509;32.858;-116.858;2023-05-10T14:07:36;3.10;;;0.90;;
53899;SDS011;40509;32.858;-116.858;2023-05-10T14:10:04;3.15;;;1.38;;
53899;SDS011;40509;32.858;-116.858;2023-05-10T14:12:31;2.13;;;0.73;;
53899;SDS011;40509;32.858;-116.858;2023-05-10T14:14:58;1.27;;;0.75;;
53899;SDS011;40509;32.858;-116.858;2023-05-10T14:17:26;0.80;;;0.68;;
53899;SDS011;40509;32.858;-116.858;2023-05-10T14:19:53;2.03;;;0.77;;
53899;SDS011;40509;32.858;-116.858;2023-05-10T14:22:20;2.00;;;0.50;;
53899;SDS011;40509;32.858;-116.858;2023-05-10T14:24:48;1.75;;;1.02;;
53899;SDS011;40509;32.858;-116.858;2023-05-10T14:27:16;0.63;;;0.45;;
53899;SDS011;40509;32.858;-116.858;2023-05-10T14:29:44;0.75;;;0.50;;
53899;SDS011;40509;32.858;-116.858;2023-05-10T14:32:11;0.60;;;0.60;;
53899;SDS011;40509;32.858;-116.858;2023-05-10T14:34:38;6.35;;;0.90;;
53899;SDS011;40509;32.858;-116.858;2023-05-10T14:37:05;3.42;;;1.25;;
53899;SDS011;40509;32.858;-116.858;2023-05-10T14:39:33;2.45;;;0.77;;
53899;SDS011;40509;32.858;-116.858;2023-05-10T14:42:01;8.63;;;0.63;;
53899;SDS011;40509;32.858;-116.858;2023-05-10T14:44:28;5.75;;;1.27;;
53899;SDS011;40509;32.858;-116.858;2023-05-10T14:46:57;2.47;;;1.13;;
53899;SDS011;40509;32.858;-116.858;2023-05-10T14:49:24;3.72;;;0.75;;
53899;SDS011;40509;32.858;-116.858;2023-05-10T14:51:52;5.63;;;1.30;;
53899;SDS011;40509;32.858;-116.858;2023-05-10T14:54:19;3.15;;;1.00;;
53899;SDS011;40509;32.858;-116.858;2023-05-10T14:56:46;5.18;;;1.00;;
53899;SDS011;40509;32.858;-116.858;2023-05-10T14:59:15;4.93;;;1.45;;
53899;SDS011;40509;32.858;-116.858;2023-05-10T15:01:43;1.08;;;0.98;;
53899;SDS011;40509;32.858;-116.858;2023-05-10T15:04:10;0.60;;;0.50;;
53899;SDS011;40509;32.858;-116.858;2023-05-10T15:06:39;2.10;;;1.27;;